Time;durP1;ratioP1;P1;durP2;ratioP2;P2;SDS_P1;SDS_P2;PMS_P1;PMS_P2;Temp;Humidity;BMP_temperature;BMP_pressure;BME280_temperature;BME280_humidity;BME280_pressure;Samples;Min_cycle;Max_cycle;Signal;HPM_P1;HPM_P2
2022/07/13 00:01:54;;;;;;;;;6.00;6.00;;;;;26.12;46.37;101781.56;4916354;28;44913;-94
2022/07/13 00:04:19;;;;;;;;;4.00;4.00;;;;;26.06;47.12;101778.69;4913312;28;46539;-94
2022/07/13 00:06:45;;;;;;;;;8.25;5.50;;;;;26.05;47.39;101791.47;4927564;28;44738;-93
2022/07/13 00:09:12;;;;;;;;;6.00;5.40;;;;;26.01;47.57;101789.25;4912900;29;44793;-94
2022/07/13 00:11:38;;;;;;;;;6.00;5.00;;;;;25.96;47.11;101789.78;4913133;29;44945;-93
2022/07/13 00:14:04;;;;;;;;;5.00;5.00;;;;;25.91;47.69;101780.47;4913665;29;45178;-89
2022/07/13 00:16:29;;;;;;;;;5.50;4.25;;;;;25.88;48.05;101784.41;4912377;29;44637;-89
2022/07/13 00:18:55;;;;;;;;;5.00;5.00;;;;;25.80;48.39;101777.13;4910846;29;44844;-90
2022/07/13 00:21:20;;;;;;;;;6.75;5.00;;;;;25.80;46.90;101784.44;4910731;29;44957;-90
2022/07/13 00:23:45;;;;;;;;;3.00;3.00;;;;;25.73;47.63;101787.00;4911391;29;45226;-89
2022/07/13 00:26:11;;;;;;;;;6.75;5.00;;;;;25.71;47.18;101780.03;4910295;29;44803;-89
2022/07/13 00:28:37;;;;;;;;;5.00;4.00;;;;;25.68;47.74;101789.41;4918342;29;44852;-89
2022/07/13 00:31:03;;;;;;;;;8.75;4.00;;;;;25.64;48.41;101780.72;4914719;29;44766;-89
2022/07/13 00:33:29;;;;;;;;;5.80;5.80;;;;;25.61;50.17;101782.94;4910352;29;45617;-89
2022/07/13 00:35:55;;;;;;;;;6.00;6.00;;;;;25.54;50.71;101774.66;4907355;28;44770;-90
2022/07/13 00:38:20;;;;;;;;;4.60;4.60;;;;;25.50;51.15;101777.91;4907316;29;45423;-90
2022/07/13 00:40:46;;;;;;;;;8.75;4.00;;;;;25.46;51.12;101784.72;4907612;29;44785;-89
2022/07/13 00:43:11;;;;;;;;;2.00;2.00;;;;;25.42;50.89;101777.91;4906434;29;44983;-89
2022/07/13 00:45:37;;;;;;;;;4.75;4.75;;;;;25.38;51.35;101777.41;4908422;29;45519;-88
2022/07/13 00:48:03;;;;;;;;;4.00;4.00;;;;;25.34;51.36;101774.22;4909874;29;44762;-89
2022/07/13 00:50:29;;;;;;;;;5.00;5.00;;;;;25.29;52.12;101770.31;4912489;29;44829;-94
2022/07/13 00:52:54;;;;;;;;;4.25;4.25;;;;;25.25;53.05;101767.09;4896691;29;46694;-94
2022/07/13 00:55:21;;;;;;;;;4.75;4.75;;;;;25.21;54.97;101768.47;4910772;29;44629;-94
2022/07/13 00:57:47;;;;;;;;;6.80;5.00;;;;;25.11;55.17;101757.78;4911739;29;44627;-94
2022/07/13 01:00:14;;;;;;;;;6.50;5.50;;;;;25.09;54.62;101767.09;4898359;29;44852;-94
2022/07/13 01:02:43;;;;;;;;;3.60;2.20;;;;;25.01;53.56;101754.34;4914368;29;45206;-94
2022/07/13 01:05:13;;;;;;;;;4.40;4.00;;;;;25.01;53.42;101753.50;4915372;29;44668;-94
2022/07/13 01:07:39;;;;;;;;;4.20;4.20;;;;;24.98;54.94;101759.28;4916972;29;44734;-95
2022/07/13 01:10:08;;;;;;;;;5.20;4.00;;;;;24.93;55.88;101753.50;4915537;29;44816;-94
2022/07/13 01:12:35;;;;;;;;;7.40;5.60;;;;;24.89;57.02;101755.72;4916565;29;45269;-94
2022/07/13 01:15:02;;;;;;;;;5.00;5.00;;;;;24.84;56.96;101758.09;4917060;29;44800;-93
2022/07/13 01:17:30;;;;;;;;;7.80;5.00;;;;;24.81;58.13;101756.59;4930359;28;44856;-93
2022/07/13 01:19:57;;;;;;;;;4.40;3.60;;;;;24.74;59.04;101750.13;4920793;29;45005;-92
2022/07/13 01:22:33;;;;;;;;;6.40;5.80;;;;;24.69;59.42;101746.22;4918982;29;46885;-93
2022/07/13 01:24:59;;;;;;;;;9.20;7.00;;;;;24.67;59.78;101753.72;4915540;29;44624;-93
2022/07/13 01:27:27;;;;;;;;;6.80;5.60;;;;;24.64;61.53;101754.88;4915071;29;44750;-93
2022/07/13 01:29:52;;;;;;;;;7.60;4.40;;;;;24.57;62.99;101748.44;4914062;29;44859;-94
2022/07/13 01:32:18;;;;;;;;;5.50;5.50;;;;;24.51;64.83;101743.69;4911010;29;45176;-90
2022/07/13 01:34:43;;;;;;;;;6.75;6.25;;;;;24.48;65.38;101749.47;4906141;29;44753;-88
2022/07/13 01:37:09;;;;;;;;;7.50;7.50;;;;;24.45;66.14;101747.91;4907337;29;44883;-89
2022/07/13 01:39:35;;;;;;;;;9.00;8.75;;;;;24.43;66.88;101758.13;4909911;29;45299;-89
2022/07/13 01:42:00;;;;;;;;;7.00;6.00;;;;;24.38;67.69;101749.63;4910625;29;46614;-90
2022/07/13 01:44:26;;;;;;;;;8.00;8.00;;;;;24.36;68.90;101752.50;4912076;29;44765;-90
2022/07/13 01:46:52;;;;;;;;;6.50;6.50;;;;;24.31;70.72;101746.69;4909188;29;44791;-89
2022/07/13 01:49:17;;;;;;;;;8.25;7.50;;;;;24.27;69.80;101745.34;4913310;29;44738;-90
2022/07/13 01:51:44;;;;;;;;;8.75;7.00;;;;;24.22;71.21;101744.97;4914196;29;45201;-90
2022/07/13 01:54:09;;;;;;;;;7.40;7.40;;;;;24.17;71.39;101741.06;4909779;29;44604;-90
2022/07/13 01:56:35;;;;;;;;;8.00;8.00;;;;;24.17;72.69;101751.94;4910009;29;45190;-89
2022/07/13 01:59:01;;;;;;;;;7.75;7.00;;;;;24.15;74.31;101741.25;4918960;29;44892;-93
2022/07/13 02:01:27;;;;;;;;;9.20;8.40;;;;;24.11;73.56;101745.31;4921609;29;45016;-89
2022/07/13 02:03:53;;;;;;;;;7.00;7.00;;;;;24.10;74.36;101743.59;4917052;29;44676;-89
2022/07/13 02:06:19;;;;;;;;;7.50;6.50;;;;;24.13;74.98;101743.28;4914046;29;44950;-89
2022/07/13 02:08:45;;;;;;;;;7.60;6.00;;;;;24.14;75.00;101731.41;4909100;29;45331;-89
2022/07/13 02:11:18;;;;;;;;;6.40;6.40;;;;;24.15;75.58;101730.38;4907312;29;45437;-89
2022/07/13 02:13:45;;;;;;;;;8.60;8.60;;;;;24.16;77.63;101734.78;4907373;29;44820;-90
2022/07/13 02:16:12;;;;;;;;;6.40;6.00;;;;;24.16;78.59;101734.78;4907044;29;44706;-88
2022/07/13 02:18:37;;;;;;;;;8.00;7.20;;;;;24.17;77.43;101722.91;4906061;29;44853;-89
2022/07/13 02:21:03;;;;;;;;;13.25;8.25;;;;;24.18;78.69;101726.50;4904256;29;45135;-89
2022/07/13 02:23:29;;;;;;;;;7.50;7.50;;;;;24.22;79.34;101727.84;4908107;29;45177;-88
2022/07/13 02:25:54;;;;;;;;;8.00;8.00;;;;;24.23;79.96;101724.13;4908725;29;44696;-89
2022/07/13 02:28:20;;;;;;;;;9.75;9.75;;;;;24.22;80.31;101720.53;4908484;29;44868;-90
2022/07/13 02:30:45;;;;;;;;;13.00;8.00;;;;;24.24;80.24;101728.53;4906402;29;45128;-90
2022/07/13 02:33:11;;;;;;;;;6.25;6.25;;;;;24.25;81.32;101727.50;4894167;29;44700;-90
2022/07/13 02:35:36;;;;;;;;;8.75;8.00;;;;;24.26;80.69;101721.06;4910224;29;44575;-89
2022/07/13 02:38:02;;;;;;;;;6.25;6.25;;;;;24.26;81.34;101726.47;4905701;29;45162;-89
2022/07/13 02:40:27;;;;;;;;;8.50;6.50;;;;;24.26;81.83;101721.06;4907274;29;45297;-88
2022/07/13 02:42:53;;;;;;;;;8.25;7.00;;;;;24.26;81.71;101721.91;4910874;29;44862;-88
2022/07/13 02:45:19;;;;;;;;;10.25;9.00;;;;;24.27;82.59;101723.63;4915043;29;44689;-89
2022/07/13 02:47:44;;;;;;;;;10.00;8.50;;;;;24.24;83.65;101718.50;4912205;29;44788;-89
2022/07/13 02:50:10;;;;;;;;;10.50;10.25;;;;;24.23;83.88;101714.09;4907116;29;45173;-89
2022/07/13 02:52:35;;;;;;;;;11.25;7.75;;;;;24.22;83.68;101706.09;4907527;29;44815;-89
2022/07/13 02:55:01;;;;;;;;;7.50;7.50;;;;;24.22;84.53;101711.53;4907620;29;45225;-89
2022/07/13 02:57:26;;;;;;;;;13.25;8.25;;;;;24.20;85.60;101713.59;4907490;29;44771;-89
2022/07/13 02:59:52;;;;;;;;;6.00;6.00;;;;;24.17;85.29;101722.91;4908513;29;44969;-89
2022/07/13 03:02:18;;;;;;;;;7.00;5.50;;;;;24.15;86.49;101710.53;4907635;29;44695;-89
2022/07/13 03:04:43;;;;;;;;;13.20;8.80;;;;;24.13;86.04;101707.09;4904216;29;44663;-89
2022/07/13 03:07:09;;;;;;;;;8.50;8.50;;;;;24.13;86.53;101709.81;4903771;29;44931;-89
2022/07/13 03:09:34;;;;;;;;;11.25;9.25;;;;;24.14;86.18;101712.41;4905379;29;45229;-89
2022/07/13 03:12:00;;;;;;;;;9.75;9.25;;;;;24.11;87.13;101707.28;4909594;29;44777;-89
2022/07/13 03:14:26;;;;;;;;;8.75;7.00;;;;;24.13;87.60;101710.69;4912102;29;44823;-89
2022/07/13 03:16:52;;;;;;;;;11.00;9.50;;;;;24.08;88.62;101708.50;4909712;28;45293;-90
2022/07/13 03:19:19;;;;;;;;;9.00;7.40;;;;;24.10;88.36;101716.47;4914479;28;44966;-90
2022/07/13 03:21:44;;;;;;;;;9.00;7.00;;;;;24.08;88.71;101710.34;4915574;29;44969;-89
2022/07/13 03:24:12;;;;;;;;;6.75;6.75;;;;;24.07;90.41;101714.06;4913278;28;44819;-90
2022/07/13 03:26:39;;;;;;;;;9.20;8.00;;;;;24.06;89.92;101713.22;4908515;28;44926;-90
2022/07/13 03:29:04;;;;;;;;;9.60;6.00;;;;;24.06;90.23;101706.94;4906089;29;45557;-89
2022/07/13 03:31:30;;;;;;;;;7.75;7.00;;;;;24.05;90.53;101710.69;4905207;29;44719;-90
2022/07/13 03:33:55;;;;;;;;;9.00;8.75;;;;;24.05;90.41;101705.25;4911790;28;44787;-94
2022/07/13 03:36:21;;;;;;;;;9.75;8.00;;;;;24.02;90.36;101703.72;4910071;29;44953;-93
2022/07/13 03:38:47;;;;;;;;;6.00;6.00;;;;;24.06;90.00;101710.50;4891970;29;45119;-93
2022/07/13 03:41:12;;;;;;;;;7.75;7.75;;;;;24.06;90.11;101718.66;4909084;29;44658;-94
2022/07/13 03:43:38;;;;;;;;;11.00;8.00;;;;;24.05;90.06;101716.09;4892515;29;44742;-94
2022/07/13 03:46:05;;;;;;;;;6.00;6.00;;;;;24.06;90.84;101717.81;4908044;28;44902;-94
2022/07/13 03:48:32;;;;;;;;;9.00;9.00;;;;;24.04;90.75;101712.56;4906043;29;44994;-93
2022/07/13 03:50:58;;;;;;;;;8.60;8.60;;;;;24.06;91.62;101709.66;4905066;29;44767;-93
2022/07/13 03:53:25;;;;;;;;;10.00;9.25;;;;;24.04;92.11;101711.69;4906379;29;44761;-92
2022/07/13 03:55:51;;;;;;;;;8.20;6.60;;;;;24.07;92.76;101711.34;4908709;28;44972;-94
2022/07/13 03:58:16;;;;;;;;;11.50;9.25;;;;;24.07;92.51;101714.06;4906528;29;45029;-94
2022/07/13 04:00:42;;;;;;;;;9.25;7.00;;;;;24.05;93.43;101703.38;4906606;29;44638;-93
2022/07/13 04:03:08;;;;;;;;;8.60;6.60;;;;;24.05;92.67;101716.97;4914022;28;44654;-95
2022/07/13 04:05:35;;;;;;;;;8.50;8.25;;;;;24.07;93.15;101717.63;4915879;29;44973;-93
2022/07/13 04:08:00;;;;;;;;;11.00;8.20;;;;;24.08;93.05;101718.50;4918088;29;45233;-89
2022/07/13 04:10:26;;;;;;;;;7.25;6.25;;;;;24.07;93.32;101714.06;4915787;28;44828;-90
2022/07/13 04:12:51;;;;;;;;;6.75;6.75;;;;;24.09;93.61;101720.19;4907888;28;45427;-89
2022/07/13 04:15:17;;;;;;;;;6.50;6.50;;;;;24.10;94.25;101714.59;4909535;29;44957;-88
2022/07/13 04:17:44;;;;;;;;;11.50;7.00;;;;;24.10;94.73;101722.72;4910104;29;45234;-90
2022/07/13 04:20:11;;;;;;;;;8.60;7.20;;;;;24.16;93.86;101721.22;4905197;29;44754;-90
2022/07/13 04:22:37;;;;;;;;;8.40;7.40;;;;;24.17;93.52;101717.47;4902650;29;44614;-89
2022/07/13 04:25:03;;;;;;;;;8.50;6.25;;;;;24.16;94.06;101709.50;4905459;29;44670;-89
2022/07/13 04:27:29;;;;;;;;;9.00;6.60;;;;;24.16;94.34;101715.78;4906815;29;45033;-91
2022/07/13 04:29:54;;;;;;;;;10.50;7.75;;;;;24.18;94.48;101715.63;4907974;28;44757;-89
2022/07/13 04:32:20;;;;;;;;;10.25;8.25;;;;;24.21;94.39;101718.84;4905178;29;44773;-90
2022/07/13 04:34:45;;;;;;;;;11.50;5.75;;;;;24.22;94.77;101720.53;4905910;28;44856;-90
2022/07/13 04:37:11;;;;;;;;;7.00;7.00;;;;;24.22;94.67;101716.97;4908046;29;45040;-89
2022/07/13 04:39:39;;;;;;;;;8.00;8.00;;;;;24.25;95.47;101712.06;4907513;29;45325;-89
2022/07/13 04:42:04;;;;;;;;;6.40;6.40;;;;;24.28;94.30;101710.88;4902461;29;44832;-90
2022/07/13 04:44:30;;;;;;;;;8.50;6.50;;;;;24.30;94.89;101711.56;4901227;29;45307;-90
2022/07/13 04:46:55;;;;;;;;;11.00;7.50;;;;;24.34;95.25;101715.63;4900842;29;45679;-89
2022/07/13 04:49:22;;;;;;;;;6.75;6.75;;;;;24.37;96.23;101712.63;4902474;28;45234;-88
2022/07/13 04:51:49;;;;;;;;;11.40;11.40;;;;;24.40;95.90;101706.00;4903336;28;45224;-89
2022/07/13 04:54:16;;;;;;;;;10.00;8.60;;;;;24.44;95.91;101704.63;4906957;28;44880;-89
2022/07/13 04:56:41;;;;;;;;;11.80;8.40;;;;;24.46;96.38;101702.59;4905452;29;46435;-90
2022/07/13 04:59:07;;;;;;;;;9.00;9.00;;;;;24.52;96.40;101713.63;4908533;29;44818;-89
2022/07/13 05:01:32;;;;;;;;;8.25;8.25;;;;;24.58;97.02;101717.53;4912093;29;44733;-88
2022/07/13 05:03:58;;;;;;;;;14.25;12.25;;;;;24.61;96.30;101711.75;4913366;29;44881;-88
2022/07/13 05:06:24;;;;;;;;;10.00;9.25;;;;;24.65;97.37;101709.53;4907682;28;45329;-88
2022/07/13 05:08:49;;;;;;;;;15.50;9.00;;;;;24.66;96.13;101708.50;4909728;29;44842;-89
2022/07/13 05:11:14;;;;;;;;;14.50;11.75;;;;;24.70;97.03;101709.88;4912419;28;44647;-90
2022/07/13 05:13:40;;;;;;;;;13.00;12.00;;;;;24.76;96.50;101714.66;4914140;28;44774;-88
2022/07/13 05:16:06;;;;;;;;;9.25;9.25;;;;;24.77;96.85;101714.47;4908843;29;46741;-89
2022/07/13 05:18:32;;;;;;;;;8.75;7.75;;;;;24.81;98.80;101721.25;4910788;28;44716;-89
2022/07/13 05:20:58;;;;;;;;;10.60;9.00;;;;;24.79;97.66;101709.69;4910897;29;44848;-89
2022/07/13 05:23:23;;;;;;;;;8.25;8.25;;;;;24.81;97.45;101718.53;4908884;28;44917;-88
2022/07/13 05:25:49;;;;;;;;;9.50;8.25;;;;;24.89;97.62;101717.66;4910709;28;45132;-92
2022/07/13 05:28:15;;;;;;;;;8.50;8.50;;;;;24.91;97.51;101721.06;4898121;29;44666;-93
2022/07/13 05:30:40;;;;;;;;;9.25;7.50;;;;;24.96;97.12;101720.56;4914402;29;44758;-94
2022/07/13 05:36:29;;;;;;;;;16.40;11.20;;;;;25.08;97.75;101721.91;4921367;29;44938;-93
2022/07/13 05:38:55;;;;;;;;;12.00;8.40;;;;;25.10;97.86;101728.03;4921606;29;44784;-92
2022/07/13 05:41:32;;;;;;;;;13.75;9.25;;;;;25.12;97.25;101718.66;4911562;28;44822;-93
2022/07/13 05:44:21;;;;;;;;;12.00;11.20;;;;;25.18;96.48;101725.28;4929815;28;44846;-92
2022/07/13 05:47:12;;;;;;;;;21.00;10.60;;;;;25.21;98.43;101724.09;4924372;28;45024;-93
2022/07/13 05:49:58;;;;;;;;;11.60;9.80;;;;;25.27;96.82;101735.13;4924047;28;44654;-92
2022/07/13 05:52:24;;;;;;;;;11.40;9.20;;;;;25.32;96.19;101726.44;4924820;28;44749;-93
2022/07/13 05:54:53;;;;;;;;;13.00;9.40;;;;;25.37;95.85;101722.16;4923537;29;44844;-92
2022/07/13 05:57:19;;;;;;;;;12.60;9.60;;;;;25.46;95.54;101731.13;4925653;29;45119;-93
2022/07/13 05:59:46;;;;;;;;;13.40;11.80;;;;;25.50;96.59;101729.75;4926757;28;44738;-93
2022/07/13 06:02:12;;;;;;;;;14.60;10.60;;;;;25.52;96.85;101722.25;4897502;29;44786;-93
2022/07/13 06:04:38;;;;;;;;;17.25;12.50;;;;;25.64;96.18;101723.56;4929041;28;44882;-93
2022/07/13 06:07:03;;;;;;;;;10.40;8.80;;;;;25.73;95.12;101723.56;4923060;28;45135;-88
2022/07/13 06:09:28;;;;;;;;;11.00;10.00;;;;;25.84;95.97;101726.72;4911103;28;44662;-89
2022/07/13 06:11:54;;;;;;;;;15.75;11.00;;;;;25.98;96.37;101729.72;4911943;28;44893;-89
2022/07/13 06:14:20;;;;;;;;;20.40;12.00;;;;;26.04;95.78;101735.28;4865095;28;1200761;-89
2022/07/13 06:16:45;;;;;;;;;11.50;10.25;;;;;26.12;95.37;101734.41;4896583;29;45268;-90
2022/07/13 06:19:11;;;;;;;;;11.75;9.25;;;;;26.18;94.13;101730.09;4894660;29;44627;-90
2022/07/13 06:21:36;;;;;;;;;11.25;10.75;;;;;26.21;94.76;101738.78;4891670;29;44744;-90
2022/07/13 06:24:02;;;;;;;;;12.00;8.75;;;;;26.29;94.68;101729.66;4904314;29;44989;-89
2022/07/13 06:26:27;;;;;;;;;13.00;11.00;;;;;26.32;95.93;101734.78;4886443;29;44960;-89
2022/07/13 06:28:53;;;;;;;;;13.25;10.00;;;;;26.42;94.64;101731.81;4885995;29;44624;-89
2022/07/13 06:31:18;;;;;;;;;10.25;9.00;;;;;26.46;94.41;101734.00;4901484;29;44713;-89
2022/07/13 06:33:45;;;;;;;;;12.00;10.50;;;;;26.51;93.69;101728.84;4902147;29;44915;-90
2022/07/13 06:36:10;;;;;;;;;11.60;9.80;;;;;26.63;92.68;101731.97;4891480;29;45524;-90
2022/07/13 06:38:36;;;;;;;;;15.50;13.25;;;;;26.73;93.19;101729.00;4893937;29;44747;-89
2022/07/13 06:41:02;;;;;;;;;14.25;12.25;;;;;26.83;92.17;101729.56;4908965;29;44792;-90
2022/07/13 06:43:27;;;;;;;;;15.00;11.50;;;;;26.94;92.35;101726.41;4895789;29;44783;-90
2022/07/13 06:45:52;;;;;;;;;14.25;13.00;;;;;27.08;92.35;101735.69;4896872;29;45388;-91
2022/07/13 06:48:18;;;;;;;;;11.25;11.25;;;;;27.18;90.90;101727.22;4890254;29;44802;-90
2022/07/13 06:50:44;;;;;;;;;15.00;12.00;;;;;27.33;91.26;101726.19;4892247;29;44782;-90
2022/07/13 06:53:11;;;;;;;;;13.50;9.50;;;;;27.40;90.60;101729.00;4893875;29;44858;-90
2022/07/13 06:55:36;;;;;;;;;10.20;9.00;;;;;27.48;89.83;101728.91;4891939;29;45332;-90
2022/07/13 06:58:06;;;;;;;;;10.75;9.00;;;;;27.57;89.25;101733.22;4896380;29;44751;-93
2022/07/13 07:00:32;;;;;;;;;12.80;9.40;;;;;27.71;88.26;101731.53;4913986;29;44828;-93
2022/07/13 07:02:58;;;;;;;;;12.50;10.50;;;;;27.85;88.20;101733.41;4916161;29;44894;-93
2022/07/13 07:05:27;;;;;;;;;11.80;9.40;;;;;28.02;87.39;101738.63;4898980;29;45123;-94
2022/07/13 07:07:52;;;;;;;;;14.00;11.40;;;;;28.37;86.86;101737.75;4894295;29;44647;-91
2022/07/13 07:10:18;;;;;;;;;20.00;15.25;;;;;28.80;86.50;101725.91;4888696;29;45133;-91
2022/07/13 07:12:44;;;;;;;;;16.50;11.75;;;;;29.37;85.66;101727.59;4902086;29;45003;-89
2022/07/13 07:15:09;;;;;;;;;12.25;10.00;;;;;29.93;81.40;101722.78;4885397;29;45519;-90
2022/07/13 07:17:44;;;;;;;;;11.00;9.00;;;;;30.47;77.63;101729.22;4891386;29;45045;-90
2022/07/13 07:20:10;;;;;;;;;12.00;7.60;;;;;30.80;74.45;101734.75;4915825;29;44819;-90
2022/07/13 07:22:35;;;;;;;;;8.40;8.20;;;;;30.96;75.05;101728.81;4906522;29;44891;-89
2022/07/13 07:25:01;;;;;;;;;8.00;6.75;;;;;31.08;70.60;101733.63;4891584;29;44999;-90
2022/07/13 07:27:26;;;;;;;;;11.75;9.50;;;;;31.30;72.08;101731.53;4890649;29;44740;-90
2022/07/13 07:29:52;;;;;;;;;8.25;8.25;;;;;31.70;74.67;101732.19;4886856;29;44703;-89
2022/07/13 07:32:18;;;;;;;;;9.25;9.25;;;;;32.04;66.85;101736.50;4890987;29;44838;-90
2022/07/13 07:34:43;;;;;;;;;11.50;11.00;;;;;32.29;64.24;101738.44;4892103;29;45030;-89
2022/07/13 07:37:09;;;;;;;;;9.00;7.75;;;;;32.39;62.68;101742.41;4895223;29;45173;-90
2022/07/13 07:39:36;;;;;;;;;12.75;10.00;;;;;32.41;62.03;101747.72;4890488;29;44829;-89
2022/07/13 07:42:03;;;;;;;;;19.75;16.00;;;;;32.42;62.29;101735.63;4884907;29;44776;-90
2022/07/13 07:44:29;;;;;;;;;10.80;9.00;;;;;32.47;61.60;101739.41;4886170;29;46759;-90
2022/07/13 07:46:55;;;;;;;;;7.00;6.00;;;;;32.48;55.42;101741.06;4890273;29;44730;-90
2022/07/13 07:49:21;;;;;;;;;11.00;6.50;;;;;32.58;56.22;101737.81;4891839;29;44894;-91
2022/07/13 07:51:46;;;;;;;;;10.75;8.00;;;;;32.66;57.25;101728.47;4890983;29;44953;-91
2022/07/13 07:54:12;;;;;;;;;7.40;5.20;;;;;32.68;54.97;101735.41;4892557;29;45156;-91
2022/07/13 07:56:38;;;;;;;;;5.25;5.25;;;;;32.66;47.19;101742.22;4897907;29;44718;-91
2022/07/13 07:59:03;;;;;;;;;5.25;4.00;;;;;32.62;50.88;101735.47;4913500;29;44763;-91
2022/07/13 08:01:29;;;;;;;;;5.50;4.00;;;;;32.56;48.67;101730.88;4893222;29;44869;-91
2022/07/13 08:03:55;;;;;;;;;5.50;4.50;;;;;32.42;44.74;101743.88;4892585;29;44940;-90
2022/07/13 08:06:20;;;;;;;;;4.00;4.00;;;;;32.21;44.03;101734.91;4890776;29;44645;-91
2022/07/13 08:08:46;;;;;;;;;5.00;4.00;;;;;32.05;43.01;101742.84;4890799;29;44651;-91
2022/07/13 08:11:16;;;;;;;;;5.50;5.50;;;;;32.00;42.89;101732.50;4890319;29;44966;-90
2022/07/13 08:13:42;;;;;;;;;7.40;3.40;;;;;31.94;43.55;101736.97;4890514;29;47396;-91
2022/07/13 08:16:08;;;;;;;;;3.80;3.40;;;;;31.85;43.41;101740.19;4892622;29;44763;-90
2022/07/13 08:18:33;;;;;;;;;4.00;2.00;;;;;31.71;45.27;101729.22;4893146;29;44801;-90
2022/07/13 08:21:00;;;;;;;;;7.75;3.50;;;;;31.67;44.73;101733.50;4900706;29;44829;-89
2022/07/13 08:26:11;;;;;;;;;4.00;4.00;;;;;31.71;44.60;101729.22;4902756;29;44555;-89
2022/07/13 08:28:38;;;;;;;;;3.00;3.00;;;;;31.79;42.27;101730.91;4904456;29;44680;-88
2022/07/13 08:31:05;;;;;;;;;2.40;2.40;;;;;31.90;42.62;101732.97;4924335;28;44885;-94
2022/07/13 08:38:58;;;;;;;;;4.40;2.00;;;;;31.88;41.69;101740.59;4904709;28;44661;-93
2022/07/13 08:41:24;;;;;;;;;8.00;3.00;;;;;31.85;42.15;101740.19;4899721;29;44936;-93
2022/07/13 08:43:50;;;;;;;;;4.25;3.25;;;;;31.65;41.62;101741.09;4901289;29;45051;-94
2022/07/13 08:46:21;;;;;;;;;4.60;4.60;;;;;31.33;41.35;101729.19;4903432;29;44832;-94
2022/07/13 08:49:09;;;;;;;;;5.20;3.00;;;;;31.19;42.56;101728.34;4906807;28;44683;-94
2022/07/13 08:51:36;;;;;;;;;4.00;3.20;;;;;31.15;41.97;101729.84;4887390;29;44928;-94
2022/07/13 08:54:06;;;;;;;;;3.20;3.20;;;;;31.00;41.59;101736.63;4907333;28;45230;-94
2022/07/13 08:56:36;;;;;;;;;2.80;2.80;;;;;31.00;43.00;101729.25;4924541;28;44634;-93
2022/07/13 08:59:04;;;;;;;;;3.80;3.80;;;;;30.97;42.05;101718.69;4925505;28;44752;-92
2022/07/13 09:01:50;;;;;;;;;6.00;4.40;;;;;30.83;42.21;101726.06;4923960;28;44812;-92
2022/07/13 09:04:15;;;;;;;;;6.20;4.60;;;;;30.91;42.74;101720.38;4905399;29;45172;-92
2022/07/13 09:06:48;;;;;;;;;6.75;4.00;;;;;30.89;41.79;101722.47;4907706;28;44632;-94
2022/07/13 09:09:44;;;;;;;;;4.00;4.00;;;;;30.89;41.45;101724.38;4927604;28;44712;-93
2022/07/13 09:12:12;;;;;;;;;3.40;3.00;;;;;31.08;41.75;101719.91;4913087;28;44906;-94
2022/07/13 09:14:38;;;;;;;;;4.60;3.00;;;;;31.17;41.63;101724.13;4922602;28;45283;-94
2022/07/13 09:17:04;;;;;;;;;5.60;3.80;;;;;31.15;41.52;101709.78;4909606;28;44955;-94
2022/07/13 09:19:40;;;;;;;;;3.75;3.75;;;;;31.17;42.35;101719.47;4908666;28;44785;-94
2022/07/13 09:22:14;;;;;;;;;3.00;2.00;;;;;31.34;42.31;101722.63;4909451;28;44931;-93
2022/07/13 09:24:46;;;;;;;;;3.20;3.20;;;;;31.51;41.81;101717.50;4909933;28;45372;-92
2022/07/13 09:27:13;;;;;;;;;3.00;3.00;;;;;31.70;41.74;101712.97;4910728;28;44577;-94
2022/07/13 09:29:40;;;;;;;;;4.80;4.20;;;;;31.89;42.43;101711.22;4911403;28;44774;-94
2022/07/13 09:32:08;;;;;;;;;3.75;3.25;;;;;32.08;41.70;101717.66;4910925;28;44913;-93
2022/07/13 09:37:11;;;;;;;;;3.20;3.20;;;;;32.49;40.16;101714.41;1428600;26;46172;-93
2022/07/13 09:40:07;;;;;;;;;3.80;3.80;;;;;32.40;39.19;101705.63;4914665;29;44783;-92
2022/07/13 09:42:36;;;;;;;;;3.80;3.80;;;;;32.39;39.30;101708.56;4914755;28;44834;-93
2022/07/13 09:48:00;;;;;;;;;3.00;3.00;;;;;32.74;39.50;101711.66;4918027;28;44746;-93
2022/07/13 09:50:40;;;;;;;;;3.00;3.00;;;;;32.86;37.72;101711.75;4930540;28;44654;-93
2022/07/13 09:53:29;;;;;;;;;3.00;3.00;;;;;32.90;38.18;101705.59;4913428;28;44767;-93
2022/07/13 09:55:57;;;;;;;;;4.80;4.80;;;;;33.00;35.42;101710.59;4926641;28;45128;-92
2022/07/13 09:58:28;;;;;;;;;3.00;3.00;;;;;32.80;34.05;101715.41;4913521;28;44768;-92
2022/07/13 10:00:59;;;;;;;;;3.00;3.00;;;;;32.84;34.69;101706.47;4914177;29;44702;-91
2022/07/13 10:03:26;;;;;;;;;3.40;3.40;;;;;32.98;32.95;101718.25;4896698;29;44817;-91
2022/07/13 10:05:54;;;;;;;;;5.00;3.40;;;;;32.97;33.86;101713.78;4892272;29;45637;-92
2022/07/13 10:08:23;;;;;;;;;4.40;3.20;;;;;32.91;32.18;101710.03;4925698;29;44761;-91
2022/07/13 10:10:50;;;;;;;;;3.60;3.00;;;;;32.97;33.85;101720.13;4908821;29;44813;-93
2022/07/13 10:13:20;;;;;;;;;2.40;2.40;;;;;33.04;32.55;101717.31;4928183;28;44921;-92
2022/07/13 10:15:47;;;;;;;;;4.80;3.80;;;;;33.03;32.98;101712.91;4911753;29;45243;-92
2022/07/13 10:18:26;;;;;;;;;7.00;3.40;;;;;32.83;31.47;101707.56;4903866;29;44561;-93
2022/07/13 10:21:08;;;;;;;;;4.80;3.20;;;;;32.92;32.20;101713.63;4914397;29;44870;-93
2022/07/13 10:23:37;;;;;;;;;4.00;3.00;;;;;33.16;31.58;101711.88;4896299;29;44901;-93
2022/07/13 10:26:03;;;;;;;;;2.40;2.40;;;;;33.28;31.21;101711.97;4878966;29;45159;-93
2022/07/13 10:28:29;;;;;;;;;4.75;2.50;;;;;33.37;31.19;101705.09;4896918;29;44789;-93
2022/07/13 10:30:57;;;;;;;;;2.00;0.80;;;;;33.35;30.98;101721.00;4897434;29;44746;-93
2022/07/13 10:33:26;;;;;;;;;2.40;2.40;;;;;33.48;31.75;101710.69;4881768;29;44913;-91
2022/07/13 10:35:54;;;;;;;;;3.40;3.40;;;;;33.53;30.03;101709.16;4899884;29;46797;-92
2022/07/13 10:38:33;;;;;;;;;3.00;3.00;;;;;33.69;31.89;101701.06;4910220;29;45420;-93
2022/07/13 10:41:23;;;;;;;;;3.40;3.00;;;;;33.88;30.97;101701.88;4897870;29;44671;-93
2022/07/13 10:44:02;;;;;;;;;4.20;3.00;;;;;33.63;29.65;101702.00;4897393;29;44869;-93
2022/07/13 10:46:55;;;;;;;;;3.00;3.00;;;;;33.40;31.26;101699.94;4915229;29;45023;-92
2022/07/13 10:49:48;;;;;;;;;2.40;2.40;;;;;33.08;31.31;101687.44;4895184;29;44813;-92
2022/07/13 10:52:28;;;;;;;;;2.80;2.80;;;;;33.23;31.23;101701.66;4910473;29;44733;-92
2022/07/13 10:55:09;;;;;;;;;3.00;3.00;;;;;33.58;31.70;101701.88;4909267;29;44697;-93
2022/07/13 10:57:37;;;;;;;;;3.80;3.80;;;;;33.53;30.79;101703.66;4894941;29;46970;-92
2022/07/13 11:00:23;;;;;;;;;4.00;4.00;;;;;33.19;31.57;101703.19;4881589;29;44609;-93
2022/07/13 11:02:54;;;;;;;;;3.80;3.80;;;;;33.36;30.84;101700.63;4914804;29;44616;-92
2022/07/13 11:05:24;;;;;;;;;4.00;3.00;;;;;33.56;31.02;101694.91;4893464;29;44942;-89
2022/07/13 11:07:51;;;;;;;;;1.00;1.00;;;;;33.75;30.88;101694.66;4905702;29;45272;-89
2022/07/13 11:10:24;;;;;;;;;2.80;2.80;;;;;33.83;31.04;101693.47;4888817;29;45473;-89
2022/07/13 11:13:13;;;;;;;;;3.00;3.00;;;;;33.83;31.72;101682.44;4906006;29;44637;-89
2022/07/13 11:15:45;;;;;;;;;4.00;4.00;;;;;34.02;32.00;101688.78;4887210;29;44844;-89
2022/07/13 11:18:23;;;;;;;;;3.20;3.20;;;;;34.24;31.09;101684.41;4905543;29;45313;-89
2022/07/13 11:21:09;;;;;;;;;2.80;2.80;;;;;34.25;31.33;101690.75;4906844;29;44812;-89
2022/07/13 11:27:06;;;;;;;;;4.00;4.00;;;;;34.21;32.07;101684.84;4908212;29;44607;-88
2022/07/13 11:29:45;;;;;;;;;2.80;2.80;;;;;34.54;31.41;101677.16;4911459;29;45350;-88
2022/07/13 11:32:11;;;;;;;;;3.00;3.00;;;;;34.81;31.19;101669.19;4914019;29;44599;-88
2022/07/13 11:34:38;;;;;;;;;3.40;3.40;;;;;34.86;30.99;101678.44;4911263;29;44628;-89
2022/07/13 11:37:04;;;;;;;;;1.00;0.00;;;;;34.87;30.94;101677.38;4907403;29;44913;-89
2022/07/13 11:39:34;;;;;;;;;2.40;2.40;;;;;34.73;31.11;101678.69;4906172;29;45289;-88
2022/07/13 11:42:02;;;;;;;;;2.20;2.20;;;;;34.66;30.70;101675.22;4887336;29;44774;-88
2022/07/13 11:44:30;;;;;;;;;2.40;2.40;;;;;34.34;31.58;101670.00;4903413;29;45179;-88
2022/07/13 11:47:06;;;;;;;;;2.80;2.80;;;;;34.35;31.08;101663.41;4903590;29;44809;-89